createdAt,value
2019-04-05T00:01:24.111Z,36.90
2019-04-05T00:03:52.578Z,39.63
2019-04-05T00:06:20.988Z,43.33
2019-04-05T00:08:49.454Z,38.47
2019-04-05T00:11:17.876Z,45.27
2019-04-05T00:13:46.372Z,38.73
2019-04-05T00:16:14.794Z,42.73
2019-04-05T00:18:43.223Z,39.53
2019-04-05T00:21:11.663Z,36.33
2019-04-05T00:23:40.126Z,39.43
2019-04-05T00:26:08.598Z,36.40
2019-04-05T00:28:37.028Z,36.53
2019-04-05T00:31:05.460Z,39.63
2019-04-05T00:33:33.895Z,31.23
2019-04-05T00:36:02.340Z,42.47
2019-04-05T00:38:30.766Z,38.57
2019-04-05T00:40:59.209Z,40.47
2019-04-05T00:43:27.714Z,35.97
2019-04-05T00:45:56.228Z,36.73
2019-04-05T00:48:24.665Z,30.10
2019-04-05T00:50:53.072Z,38.63
2019-04-05T00:53:21.519Z,37.60
2019-04-05T00:55:50.221Z,42.67
2019-04-05T00:58:18.654Z,40.97
2019-04-05T01:00:47.090Z,39.30
2019-04-05T01:03:15.500Z,33.27
2019-04-05T01:05:43.976Z,36.60
2019-04-05T01:08:12.569Z,36.03
2019-04-05T01:10:41.014Z,37.13
2019-04-05T01:13:09.702Z,37.90
2019-04-05T01:15:40.996Z,39.30
2019-04-05T01:18:08.275Z,43.63
2019-04-05T01:20:38.255Z,39.83
2019-04-05T01:23:06.940Z,35.83
2019-04-05T01:25:37.384Z,47.50
2019-04-05T01:28:05.897Z,38.20
2019-04-05T01:30:34.548Z,41.13
2019-04-05T01:33:03.064Z,38.17
2019-04-05T01:35:31.481Z,36.80
2019-04-05T01:38:00.139Z,35.70
2019-04-05T01:40:32.348Z,47.27
2019-04-05T01:43:01.401Z,48.60
2019-04-05T01:45:30.011Z,41.93
2019-04-05T01:47:58.593Z,36.73
2019-04-05T01:50:27.373Z,39.30
2019-04-05T01:52:55.859Z,39.50
2019-04-05T01:55:24.303Z,45.87
2019-04-05T01:57:52.745Z,36.97
2019-04-05T02:00:21.341Z,41.03
2019-04-05T02:02:49.850Z,59.83
2019-04-05T02:05:19.842Z,48.53
2019-04-05T02:07:48.281Z,39.47
2019-04-05T02:10:17.131Z,46.03
2019-04-05T02:12:45.613Z,47.50
2019-04-05T02:15:20.176Z,38.23
2019-04-05T02:17:48.581Z,47.70
2019-04-05T02:20:17.156Z,48.40
2019-04-05T02:22:45.571Z,47.77
2019-04-05T02:25:14.248Z,42.70
2019-04-05T02:27:43.024Z,37.67
2019-04-05T02:30:11.446Z,42.90
2019-04-05T02:32:40.011Z,37.83
2019-04-05T02:35:09.002Z,39.23
2019-04-05T02:37:38.028Z,41.07
2019-04-05T02:40:12.708Z,45.37
2019-04-05T02:42:43.001Z,47.03
2019-04-05T02:45:12.951Z,44.33
2019-04-05T02:47:44.795Z,42.07
2019-04-05T02:50:14.768Z,41.17
2019-04-05T02:52:44.889Z,41.90
2019-04-05T02:55:13.530Z,46.30
2019-04-05T02:57:44.390Z,49.23
2019-04-05T03:00:13.007Z,37.30
2019-04-05T03:02:42.760Z,44.50
2019-04-05T03:05:11.616Z,42.80
2019-04-05T03:07:40.209Z,44.53
2019-04-05T03:10:09.000Z,45.23
2019-04-05T03:12:37.843Z,41.13
2019-04-05T03:15:28.595Z,48.60
2019-04-05T03:17:57.071Z,48.77
2019-04-05T03:20:26.332Z,42.23
2019-04-05T03:22:55.119Z,43.23
2019-04-05T03:25:23.772Z,51.00
2019-04-05T03:27:52.397Z,43.10
2019-04-05T03:30:21.416Z,41.73
2019-04-05T03:32:49.998Z,43.20
2019-04-05T03:35:18.947Z,39.90
2019-04-05T03:37:47.693Z,42.50
2019-04-05T03:40:16.208Z,42.63
2019-04-05T03:42:44.771Z,48.27
2019-04-05T03:45:13.596Z,36.53
2019-04-05T03:47:42.459Z,41.60
2019-04-05T03:50:11.411Z,41.10
2019-04-05T03:52:39.908Z,42.80
2019-04-05T03:55:08.677Z,41.67
2019-04-05T03:57:37.290Z,37.37
2019-04-05T04:00:06.889Z,41.67
2019-04-05T04:02:35.627Z,40.63
2019-04-05T04:05:05.402Z,40.80
2019-04-05T04:07:33.879Z,53.33
2019-04-05T04:10:02.483Z,62.10
2019-04-05T04:12:31.257Z,39.20
2019-04-05T04:15:01.845Z,44.30
2019-04-05T04:17:30.255Z,42.23
2019-04-05T04:19:58.977Z,113.00
2019-04-05T04:22:28.998Z,53.70
2019-04-05T04:24:58.703Z,41.03
2019-04-05T04:27:28.166Z,39.07
2019-04-05T04:30:00.235Z,37.93
2019-04-05T04:32:27.229Z,37.63
2019-04-05T04:34:55.899Z,46.57
2019-04-05T04:37:24.469Z,40.17
2019-04-05T04:39:53.714Z,46.30
2019-04-05T04:42:23.055Z,46.23
2019-04-05T04:44:52.640Z,38.00
2019-04-05T04:47:27.106Z,39.17
2019-04-05T04:49:52.387Z,40.70
2019-04-05T04:52:21.133Z,44.80
2019-04-05T04:54:49.554Z,46.10
2019-04-05T04:57:18.427Z,45.23
2019-04-05T04:59:47.010Z,42.40
2019-04-05T05:02:18.317Z,53.83
2019-04-05T05:04:47.000Z,45.03
2019-04-05T05:07:15.551Z,42.03
2019-04-05T05:09:44.199Z,41.00
2019-04-05T05:12:12.868Z,49.60
2019-04-05T05:14:41.863Z,47.70
2019-04-05T05:17:10.543Z,45.60
2019-04-05T05:19:39.065Z,55.67
2019-04-05T05:22:07.927Z,49.67
2019-04-05T05:24:36.434Z,54.77
2019-04-05T05:27:05.502Z,54.20
2019-04-05T05:29:34.159Z,69.33
2019-04-05T05:32:04.659Z,46.23
2019-04-05T05:34:34.093Z,48.07
2019-04-05T05:37:03.289Z,43.93
2019-04-05T05:39:34.978Z,39.00
2019-04-05T05:42:11.144Z,50.70
2019-04-05T05:44:43.481Z,47.13
2019-04-05T05:47:16.887Z,49.50
2019-04-05T05:49:45.429Z,41.43
2019-04-05T05:52:14.994Z,42.87
2019-04-05T05:54:44.899Z,40.17
2019-04-05T05:57:15.579Z,47.00
2019-04-05T05:59:45.379Z,43.30
2019-04-05T06:02:13.798Z,45.37
2019-04-05T06:04:46.329Z,40.80
2019-04-05T06:07:19.952Z,39.07
2019-04-05T06:09:47.799Z,44.47
2019-04-05T06:12:17.405Z,41.73
2019-04-05T06:14:47.827Z,52.13
2019-04-05T06:17:23.721Z,43.57
2019-04-05T06:19:54.315Z,46.63
2019-04-05T06:22:27.234Z,42.00
2019-04-05T06:24:53.021Z,41.73
2019-04-05T06:27:23.441Z,46.80
2019-04-05T06:29:55.204Z,40.03
2019-04-05T06:32:23.663Z,49.97
2019-04-05T06:34:52.180Z,39.30
2019-04-05T06:37:23.657Z,40.63
2019-04-05T06:39:54.095Z,37.70
2019-04-05T06:42:22.885Z,40.50
2019-04-05T06:44:51.318Z,39.83
2019-04-05T06:47:42.010Z,43.83
2019-04-05T06:50:12.772Z,42.60
2019-04-05T06:52:47.270Z,44.50
2019-04-05T06:55:11.710Z,45.57
2019-04-05T06:57:41.665Z,44.47
2019-04-05T07:00:14.110Z,39.97
2019-04-05T07:02:44.509Z,52.27
2019-04-05T07:05:13.392Z,48.20
2019-04-05T07:07:42.136Z,37.17
2019-04-05T07:10:14.887Z,45.70
2019-04-05T07:12:50.674Z,44.43
2019-04-05T07:15:22.437Z,51.37
2019-04-05T07:17:50.874Z,44.37
2019-04-05T07:20:19.289Z,39.63
2019-04-05T07:22:49.612Z,43.40
2019-04-05T07:25:18.380Z,42.63
2019-04-05T07:27:47.056Z,42.20
2019-04-05T07:30:18.724Z,46.00
2019-04-05T07:32:49.819Z,38.53
2019-04-05T07:35:18.307Z,46.33
2019-04-05T07:37:46.710Z,43.63
2019-04-05T07:40:17.684Z,40.53
2019-04-05T07:42:47.212Z,41.80
2019-04-05T07:45:15.717Z,37.27
2019-04-05T07:47:46.019Z,43.43
2019-04-05T07:50:16.790Z,40.23
2019-04-05T07:52:45.907Z,44.50
2019-04-05T07:55:14.628Z,36.77
2019-04-05T07:57:47.233Z,59.47
2019-04-05T08:00:27.814Z,49.97
2019-04-05T08:02:56.269Z,37.83
2019-04-05T08:05:28.869Z,38.87
2019-04-05T08:08:01.361Z,43.37
2019-04-05T08:10:30.792Z,40.13
2019-04-05T08:13:00.871Z,40.40
2019-04-05T08:15:30.309Z,30.23
2019-04-05T08:18:02.100Z,31.83
2019-04-05T08:20:30.515Z,32.70
2019-04-05T08:22:58.983Z,28.53
2019-04-05T08:25:30.000Z,23.80
2019-04-05T08:28:00.021Z,20.63
2019-04-05T08:30:28.508Z,34.60
2019-04-05T08:32:59.802Z,26.77
2019-04-05T08:35:31.845Z,28.33
2019-04-05T08:38:04.498Z,28.50
2019-04-05T08:40:33.081Z,31.53
2019-04-05T08:43:01.840Z,31.53
2019-04-05T08:45:33.063Z,33.83
2019-04-05T08:48:05.532Z,38.10
2019-04-05T08:50:33.400Z,33.50
2019-04-05T08:53:02.245Z,34.43
2019-04-05T08:55:33.830Z,37.47
2019-04-05T08:58:07.297Z,39.40
2019-04-05T09:00:39.868Z,41.93
2019-04-05T09:03:08.296Z,36.43
2019-04-05T09:05:36.837Z,45.90
2019-04-05T09:08:09.158Z,48.63
2019-04-05T09:10:42.059Z,45.80
2019-04-05T09:13:11.013Z,42.00
2019-04-05T09:15:39.489Z,41.80
2019-04-05T09:18:10.534Z,35.87
2019-04-05T09:20:43.803Z,43.10
2019-04-05T09:23:15.159Z,41.93
2019-04-05T09:25:43.343Z,37.60
2019-04-05T09:28:11.811Z,34.17
2019-04-05T09:30:46.214Z,38.40
2019-04-05T09:33:17.825Z,27.00
2019-04-05T09:35:47.676Z,31.47
2019-04-05T09:38:16.392Z,24.87
2019-04-05T09:40:46.582Z,25.93
2019-04-05T09:43:18.882Z,22.23
2019-04-05T09:45:48.544Z,21.47
2019-04-05T09:48:16.943Z,25.40
2019-04-05T09:50:46.938Z,20.57
2019-04-05T09:53:19.857Z,20.90
2019-04-05T09:55:50.493Z,20.07
2019-04-05T09:58:18.541Z,17.23
2019-04-05T10:00:48.101Z,20.23
2019-04-05T10:03:21.325Z,22.90
2019-04-05T10:05:51.584Z,21.47
2019-04-05T10:08:20.683Z,21.57
2019-04-05T10:10:49.508Z,34.13
2019-04-05T10:13:21.854Z,24.10
2019-04-05T10:15:51.735Z,21.07
2019-04-05T10:18:20.212Z,24.83
2019-04-05T10:20:50.054Z,17.73
2019-04-05T10:23:24.104Z,18.30
2019-04-05T10:25:53.979Z,20.83
2019-04-05T10:28:22.809Z,22.10
2019-04-05T10:30:52.098Z,22.20
2019-04-05T10:33:24.524Z,23.80
2019-04-05T10:35:55.323Z,25.50
2019-04-05T10:38:23.492Z,25.70
2019-04-05T10:40:53.904Z,22.83
2019-04-05T10:43:25.921Z,24.53
2019-04-05T10:45:57.344Z,20.93
2019-04-05T10:48:26.281Z,20.83
2019-04-05T10:50:55.008Z,20.77
2019-04-05T10:53:29.824Z,21.10
2019-04-05T10:56:00.018Z,20.30
2019-04-05T10:58:30.079Z,18.43
2019-04-05T11:00:58.612Z,16.67
2019-04-05T11:03:30.565Z,18.30
2019-04-05T11:06:01.403Z,20.63
2019-04-05T11:08:30.330Z,18.03
2019-04-05T11:10:58.983Z,23.90
2019-04-05T11:13:29.450Z,19.53
2019-04-05T11:16:04.774Z,18.17
2019-04-05T11:18:35.976Z,23.37
2019-04-05T11:21:06.494Z,21.37
2019-04-05T11:23:34.674Z,18.40
2019-04-05T11:26:04.334Z,21.03
2019-04-05T11:28:37.585Z,20.00
2019-04-05T11:31:09.203Z,18.80
2019-04-05T11:33:37.720Z,23.80
2019-04-05T11:36:09.225Z,23.93
2019-04-05T11:38:40.452Z,22.37
2019-04-05T11:41:14.813Z,20.07
2019-04-05T11:43:46.637Z,20.57
2019-04-05T11:46:18.103Z,18.10
2019-04-05T11:48:46.401Z,17.40
2019-04-05T11:51:15.514Z,19.30
2019-04-05T11:53:49.350Z,18.20
2019-04-05T11:56:22.403Z,20.23
2019-04-05T11:58:57.716Z,21.70
2019-04-05T12:01:31.137Z,18.13
2019-04-05T12:04:04.410Z,16.47
2019-04-05T12:06:35.285Z,16.60
2019-04-05T12:09:09.561Z,21.73
2019-04-05T12:11:38.116Z,18.47
2019-04-05T12:14:08.158Z,20.53
2019-04-05T12:16:39.252Z,19.87
2019-04-05T12:19:08.264Z,20.80
2019-04-05T12:21:37.080Z,21.67
2019-04-05T12:24:08.587Z,22.57
2019-04-05T12:26:42.551Z,21.10
2019-04-05T12:29:13.900Z,21.57
2019-04-05T12:31:42.359Z,19.27
2019-04-05T12:34:10.803Z,18.20
2019-04-05T12:36:42.704Z,17.30
2019-04-05T12:39:17.392Z,17.60
2019-04-05T12:41:51.781Z,19.77
2019-04-05T12:44:24.136Z,20.43
2019-04-05T12:46:54.529Z,19.97
2019-04-05T12:49:23.274Z,20.33
2019-04-05T12:51:51.934Z,18.30
2019-04-05T12:54:22.488Z,20.00
2019-04-05T12:56:54.062Z,29.47
2019-04-05T12:59:21.464Z,19.63
2019-04-05T13:01:51.796Z,20.83
2019-04-05T13:04:24.627Z,22.80
2019-04-05T13:06:53.757Z,18.90
2019-04-05T13:09:23.496Z,20.70
2019-04-05T13:11:52.433Z,16.47
2019-04-05T13:14:20.856Z,18.60
2019-04-05T13:16:55.516Z,18.63
2019-04-05T13:19:23.942Z,21.97
2019-04-05T13:21:52.448Z,20.07
2019-04-05T13:24:20.864Z,24.07
2019-04-05T13:26:49.381Z,20.73
2019-04-05T13:29:19.646Z,22.77
2019-04-05T13:31:48.599Z,21.83
2019-04-05T13:34:18.401Z,22.30
2019-04-05T13:36:47.011Z,28.03
2019-04-05T13:39:15.421Z,22.17
2019-04-05T13:41:43.856Z,30.00
2019-04-05T13:44:12.322Z,23.13
2019-04-05T13:46:42.753Z,25.97
2019-04-05T13:49:11.065Z,32.10
2019-04-05T13:51:42.096Z,28.07
2019-04-05T13:54:10.982Z,22.17
2019-04-05T13:56:41.437Z,21.47
2019-04-05T13:59:09.951Z,20.50
2019-04-05T14:01:38.366Z,25.00
2019-04-05T14:04:06.865Z,22.73
2019-04-05T14:06:36.689Z,21.40
2019-04-05T14:09:10.201Z,24.00
2019-04-05T14:11:37.655Z,26.50
2019-04-05T14:14:07.398Z,23.00
2019-04-05T14:16:38.290Z,25.57
2019-04-05T14:19:06.314Z,26.53
2019-04-05T14:21:40.254Z,26.47
2019-04-05T14:24:06.538Z,28.07
2019-04-05T14:26:34.988Z,30.00
2019-04-05T14:29:04.143Z,22.60
2019-04-05T14:31:32.756Z,26.17
2019-04-05T14:34:01.393Z,22.03
2019-04-05T14:36:29.901Z,25.27
2019-04-05T14:39:00.449Z,23.03
2019-04-05T14:41:28.875Z,25.87
2019-04-05T14:43:57.309Z,25.13
2019-04-05T14:46:28.229Z,24.50
2019-04-05T14:48:56.017Z,23.70
2019-04-05T14:51:24.483Z,21.90
2019-04-05T14:53:52.965Z,23.67
2019-04-05T14:56:21.425Z,20.40
2019-04-05T14:58:49.851Z,26.80
2019-04-05T15:01:18.407Z,21.10
2019-04-05T15:03:46.949Z,21.03
2019-04-05T15:06:15.631Z,27.30
2019-04-05T15:08:47.951Z,22.77
2019-04-05T15:11:16.290Z,23.20
2019-04-05T15:13:44.726Z,26.27
2019-04-05T15:16:14.398Z,19.90
2019-04-05T15:18:43.183Z,21.00
2019-04-05T15:21:11.648Z,25.57
2019-04-05T15:23:41.349Z,21.90
2019-04-05T15:26:10.162Z,29.30
2019-04-05T15:28:39.083Z,22.37
2019-04-05T15:31:07.775Z,22.23
2019-04-05T15:33:36.256Z,23.20
2019-04-05T15:36:04.963Z,20.03
2019-04-05T15:38:33.572Z,22.50
2019-04-05T15:41:01.986Z,19.43
2019-04-05T15:43:30.437Z,21.62
2019-04-05T15:45:58.847Z,22.47
2019-04-05T15:48:27.289Z,22.13
2019-04-05T15:50:59.330Z,26.90
2019-04-05T15:53:32.758Z,20.70
2019-04-05T15:56:04.329Z,23.43
2019-04-05T15:58:34.119Z,23.10
2019-04-05T16:01:04.862Z,24.60
2019-04-05T16:03:36.924Z,19.87
2019-04-05T16:06:08.007Z,17.70
2019-04-05T16:08:39.974Z,26.37
2019-04-05T16:11:09.965Z,25.30
2019-04-05T16:13:38.372Z,23.97
2019-04-05T16:16:07.119Z,25.83
2019-04-05T16:18:35.513Z,22.50
2019-04-05T16:21:04.044Z,24.60
2019-04-05T16:23:32.453Z,25.30
2019-04-05T16:26:00.900Z,32.77
2019-04-05T16:28:37.438Z,35.43
2019-04-05T16:31:06.086Z,30.20
2019-04-05T16:33:34.615Z,21.83
2019-04-05T16:36:03.126Z,24.90
2019-04-05T16:38:31.541Z,26.33
2019-04-05T16:41:00.008Z,26.90
2019-04-05T16:43:28.412Z,25.13
2019-04-05T16:45:56.861Z,24.50
2019-04-05T16:48:25.329Z,31.53
2019-04-05T16:50:53.750Z,40.33
2019-04-05T16:53:22.201Z,24.27
2019-04-05T16:55:50.644Z,30.97
2019-04-05T16:58:19.082Z,28.80
2019-04-05T17:00:47.543Z,40.20
2019-04-05T17:03:15.958Z,25.30
2019-04-05T17:05:44.398Z,30.17
2019-04-05T17:08:12.855Z,34.83
2019-04-05T17:10:41.329Z,32.80
2019-04-05T17:13:09.796Z,36.90
2019-04-05T17:15:38.300Z,28.87
2019-04-05T17:18:06.737Z,30.77
2019-04-05T17:20:35.166Z,29.17
2019-04-05T17:23:03.645Z,29.43
2019-04-05T17:25:32.119Z,33.60
2019-04-05T17:28:00.548Z,29.97
2019-04-05T17:30:29.103Z,28.80
2019-04-05T17:32:57.569Z,31.90
2019-04-05T17:35:26.009Z,30.70
2019-04-05T17:37:54.454Z,32.00
2019-04-05T17:40:23.024Z,33.50
2019-04-05T17:42:51.461Z,33.63
2019-04-05T17:45:19.945Z,31.23
2019-04-05T17:47:48.361Z,32.53
2019-04-05T17:50:19.877Z,32.63
2019-04-05T17:52:48.299Z,32.03
2019-04-05T17:55:16.743Z,29.57
2019-04-05T17:57:45.420Z,35.93
2019-04-05T18:00:15.767Z,42.63
2019-04-05T18:02:44.222Z,40.67
2019-04-05T18:05:12.623Z,34.50
2019-04-05T18:07:41.082Z,31.70
2019-04-05T18:10:12.946Z,39.43
2019-04-05T18:12:41.456Z,38.37
2019-04-05T18:15:10.072Z,39.40
2019-04-05T18:17:38.585Z,40.30
2019-04-05T18:20:09.784Z,34.77
2019-04-05T18:22:38.364Z,40.00
2019-04-05T18:25:07.519Z,37.83
2019-04-05T18:27:36.057Z,41.40
2019-04-05T18:30:07.399Z,41.47
2019-04-05T18:32:35.879Z,43.10
2019-04-05T18:35:06.132Z,53.00
2019-04-05T18:37:35.370Z,45.20
2019-04-05T18:40:08.236Z,44.97
2019-04-05T18:42:36.759Z,47.80
2019-04-05T18:45:07.174Z,54.40
2019-04-05T18:47:35.650Z,53.50
2019-04-05T18:50:06.115Z,47.40
2019-04-05T18:52:34.573Z,47.60
2019-04-05T18:55:03.627Z,59.50
2019-04-05T18:57:32.051Z,46.37
2019-04-05T19:00:00.667Z,51.00
2019-04-05T19:02:29.193Z,67.40
2019-04-05T19:04:57.713Z,63.20
2019-04-05T19:07:26.127Z,54.07
2019-04-05T19:09:54.567Z,55.40
2019-04-05T19:12:23.028Z,64.83
2019-04-05T19:14:51.491Z,52.10
2019-04-05T19:17:24.134Z,47.87
2019-04-05T19:19:50.216Z,60.90
2019-04-05T19:22:19.879Z,61.33
2019-04-05T19:24:48.369Z,58.53
2019-04-05T19:27:17.179Z,61.73
2019-04-05T19:29:45.660Z,61.90
2019-04-05T19:49:45.778Z,60.87
2019-04-05T19:52:14.245Z,60.90
2019-04-05T19:54:42.698Z,65.80
2019-04-05T19:57:11.229Z,54.23
2019-04-05T19:59:39.760Z,62.77
2019-04-05T20:02:08.326Z,68.97
2019-04-05T20:04:36.768Z,58.07
2019-04-05T20:07:08.262Z,57.00
2019-04-05T20:09:36.665Z,66.10
2019-04-05T20:12:05.506Z,70.30
2019-04-05T20:14:33.957Z,57.80
2019-04-05T20:17:02.746Z,58.73
2019-04-05T20:19:39.241Z,58.27
2019-04-05T20:22:07.728Z,59.60
2019-04-05T20:24:36.534Z,50.30
2019-04-05T20:27:05.594Z,54.63
2019-04-05T20:29:34.198Z,53.07
2019-04-05T20:32:02.777Z,56.03
2019-04-05T20:34:31.314Z,46.73
2019-04-05T20:37:00.195Z,57.80
2019-04-05T20:39:28.631Z,46.27
2019-04-05T20:41:57.165Z,46.70
2019-04-05T20:44:25.620Z,58.40
2019-04-05T20:46:55.818Z,41.37
2019-04-05T20:49:24.235Z,44.07
2019-04-05T20:51:52.666Z,45.40
2019-04-05T20:54:24.864Z,66.30
2019-04-05T20:56:51.289Z,63.57
2019-04-05T20:59:19.758Z,55.57
2019-04-05T21:01:48.643Z,43.83
2019-04-05T21:04:18.549Z,52.13
2019-04-05T21:06:48.193Z,52.47
2019-04-05T21:09:16.722Z,51.17
2019-04-05T21:11:48.961Z,55.87
2019-04-05T21:14:17.414Z,47.73
2019-04-05T21:16:45.881Z,52.00
2019-04-05T21:19:14.396Z,48.27
2019-04-05T21:21:44.859Z,55.30
2019-04-05T21:24:13.698Z,51.53
2019-04-05T21:26:42.157Z,57.80
2019-04-05T21:29:10.602Z,49.70
2019-04-05T21:31:39.051Z,56.17
2019-04-05T21:34:07.503Z,52.23
2019-04-05T21:36:36.030Z,52.37
2019-04-05T21:39:07.526Z,60.07
2019-04-05T21:41:35.982Z,49.63
2019-04-05T21:44:04.891Z,54.53
2019-04-05T21:46:33.345Z,53.80
2019-04-05T21:49:01.886Z,57.00
2019-04-05T21:51:30.776Z,58.47
2019-04-05T21:53:59.502Z,54.27
2019-04-05T21:56:28.012Z,53.20
2019-04-05T21:58:59.327Z,55.17
2019-04-05T22:01:28.772Z,54.37
2019-04-05T22:03:57.344Z,56.97
2019-04-05T22:06:25.909Z,62.57
2019-04-05T22:08:54.768Z,52.30
2019-04-05T22:11:23.347Z,56.67
2019-04-05T22:13:51.856Z,46.17
2019-04-05T22:16:20.358Z,65.57
2019-04-05T22:18:48.924Z,52.60
2019-04-05T22:21:17.348Z,45.83
2019-04-05T22:23:45.782Z,57.30
2019-04-05T22:26:14.220Z,59.47
2019-04-05T22:28:42.741Z,50.77
2019-04-05T22:31:11.191Z,59.77
2019-04-05T22:33:39.643Z,55.10
2019-04-05T22:36:08.104Z,66.40
2019-04-05T22:38:36.529Z,62.43
2019-04-05T22:41:05.023Z,53.10
2019-04-05T22:43:33.445Z,67.40
2019-04-05T22:46:01.954Z,57.07
2019-04-05T22:48:30.408Z,61.60
2019-04-05T22:50:58.881Z,51.40
2019-04-05T22:53:27.386Z,62.03
2019-04-05T22:55:55.840Z,61.13
2019-04-05T22:58:24.282Z,59.47
2019-04-05T23:00:52.782Z,53.17
2019-04-05T23:03:21.234Z,63.13
2019-04-05T23:05:51.434Z,56.30
2019-04-05T23:08:19.868Z,71.13
2019-04-05T23:10:48.385Z,59.13
2019-04-05T23:13:17.028Z,57.30
2019-04-05T23:15:45.502Z,63.97
2019-04-05T23:18:14.053Z,60.90
2019-04-05T23:20:42.560Z,61.43
2019-04-05T23:23:11.233Z,57.13
2019-04-05T23:25:39.664Z,60.23
2019-04-05T23:28:08.152Z,69.13
2019-04-05T23:30:36.672Z,58.53
2019-04-05T23:33:05.208Z,62.27
2019-04-05T23:35:33.646Z,65.13
2019-04-05T23:38:02.170Z,61.03
2019-04-05T23:40:30.604Z,57.47
2019-04-05T23:42:59.042Z,65.13
2019-04-05T23:45:27.892Z,66.90
2019-04-05T23:47:56.337Z,66.37
2019-04-05T23:50:24.785Z,58.07
2019-04-05T23:52:53.238Z,60.47
2019-04-05T23:55:32.492Z,60.93
2019-04-05T23:57:51.857Z,63.90
